createdAt,value
2023-07-06T00:00:20.471Z,5.60
2023-07-06T00:01:20.434Z,5.10
2023-07-06T00:02:20.455Z,5.10
2023-07-06T00:03:20.524Z,5.40
2023-07-06T00:04:20.445Z,5.40
2023-07-06T00:05:20.382Z,5.40
2023-07-06T00:06:20.338Z,5.20
2023-07-06T00:07:20.304Z,5.40
2023-07-06T00:08:20.361Z,5.50
2023-07-06T00:09:20.298Z,5.50
2023-07-06T00:10:20.310Z,5.90
2023-07-06T00:11:20.284Z,5.80
2023-07-06T00:12:20.262Z,5.50
2023-07-06T00:13:20.247Z,6.50
2023-07-06T00:14:20.233Z,6.00
2023-07-06T00:15:20.219Z,5.80
2023-07-06T00:16:20.196Z,6.00
2023-07-06T00:17:20.255Z,6.40
2023-07-06T00:18:20.172Z,7.80
2023-07-06T00:19:20.151Z,6.80
2023-07-06T00:20:20.182Z,6.60
2023-07-06T00:21:27.648Z,6.60
2023-07-06T00:22:20.130Z,6.90
2023-07-06T00:23:20.115Z,6.90
2023-07-06T00:24:20.067Z,7.10
2023-07-06T00:25:20.056Z,7.00
2023-07-06T00:26:20.143Z,6.50
2023-07-06T00:27:20.057Z,6.30
2023-07-06T00:28:20.028Z,6.30
2023-07-06T00:29:20.000Z,6.70
2023-07-06T00:30:20.104Z,6.00
2023-07-06T00:31:19.973Z,6.40
2023-07-06T00:32:19.990Z,6.00
2023-07-06T00:33:19.963Z,5.60
2023-07-06T00:34:19.925Z,5.70
2023-07-06T00:35:19.923Z,5.50
2023-07-06T00:36:19.910Z,5.50
2023-07-06T00:37:19.884Z,5.10
2023-07-06T00:38:19.872Z,5.60
2023-07-06T00:39:19.911Z,5.70
2023-07-06T00:40:19.852Z,6.00
2023-07-06T00:41:19.834Z,5.60
2023-07-06T00:42:19.809Z,5.10
2023-07-06T00:43:19.796Z,5.50
2023-07-06T00:44:19.807Z,5.50
2023-07-06T00:45:19.795Z,6.50
2023-07-06T00:46:19.829Z,5.60
2023-07-06T00:47:19.755Z,5.90
2023-07-06T00:48:19.799Z,6.20
2023-07-06T00:49:19.689Z,5.80
2023-07-06T00:50:19.727Z,5.70
2023-07-06T00:51:19.668Z,6.60
2023-07-06T00:52:19.657Z,6.40
2023-07-06T00:53:19.782Z,6.20
2023-07-06T00:54:19.696Z,6.50
2023-07-06T00:55:19.904Z,6.70
2023-07-06T00:56:19.853Z,6.40
2023-07-06T00:57:19.630Z,6.90
2023-07-06T00:58:19.584Z,6.30
2023-07-06T00:59:19.533Z,6.50
2023-07-06T01:00:19.573Z,6.20
2023-07-06T01:01:19.563Z,7.10
2023-07-06T01:02:19.709Z,7.10
2023-07-06T01:03:19.576Z,6.30
2023-07-06T01:04:19.494Z,6.30
2023-07-06T01:05:19.466Z,6.30
2023-07-06T01:06:19.479Z,6.70
2023-07-06T01:07:19.481Z,6.30
2023-07-06T01:08:19.483Z,6.00
2023-07-06T01:09:19.435Z,5.90
2023-07-06T01:10:19.484Z,6.30
2023-07-06T01:11:19.422Z,6.50
2023-07-06T01:12:19.409Z,6.10
2023-07-06T01:13:19.391Z,6.60
2023-07-06T01:14:19.402Z,6.30
2023-07-06T01:15:19.400Z,6.40
2023-07-06T01:16:19.362Z,6.20
2023-07-06T01:17:19.431Z,5.80
2023-07-06T01:18:19.301Z,6.30
2023-07-06T01:19:19.307Z,5.90
2023-07-06T01:20:19.296Z,6.20
2023-07-06T01:21:19.257Z,6.20
2023-07-06T01:22:19.225Z,6.40
2023-07-06T01:23:19.263Z,5.70
2023-07-06T01:24:19.201Z,6.40
2023-07-06T01:25:19.173Z,5.70
2023-07-06T01:26:19.260Z,6.50
2023-07-06T01:27:19.142Z,6.20
2023-07-06T01:28:19.173Z,6.20
2023-07-06T01:29:19.141Z,6.70
2023-07-06T01:30:19.199Z,5.80
2023-07-06T01:31:19.175Z,6.30
2023-07-06T01:32:19.118Z,6.00
2023-07-06T01:33:19.098Z,6.20
2023-07-06T01:34:19.038Z,6.40
2023-07-06T01:35:19.110Z,5.90
2023-07-06T01:36:19.043Z,6.60
2023-07-06T01:37:19.022Z,6.20
2023-07-06T01:38:19.037Z,6.40
2023-07-06T01:39:18.995Z,6.20
2023-07-06T01:40:18.983Z,6.70
2023-07-06T01:41:18.968Z,5.90
2023-07-06T01:42:18.926Z,5.80
2023-07-06T01:43:20.188Z,5.90
2023-07-06T01:44:18.941Z,5.70
2023-07-06T01:45:18.926Z,5.80
2023-07-06T01:46:18.944Z,5.70
2023-07-06T01:47:18.877Z,6.00
2023-07-06T01:48:18.918Z,5.80
2023-07-06T01:49:18.887Z,5.80
2023-07-06T01:50:18.900Z,6.30
2023-07-06T01:51:18.850Z,5.80
2023-07-06T01:52:18.865Z,5.50
2023-07-06T01:53:18.865Z,5.60
2023-07-06T01:54:18.858Z,5.80
2023-07-06T01:55:18.768Z,6.00
2023-07-06T01:56:18.755Z,6.30
2023-07-06T01:57:18.742Z,6.10
2023-07-06T01:58:18.774Z,6.50
2023-07-06T01:59:18.699Z,6.10
2023-07-06T02:00:18.686Z,6.00
2023-07-06T02:01:18.727Z,5.80
2023-07-06T02:02:18.674Z,5.90
2023-07-06T02:03:18.737Z,6.20
2023-07-06T02:04:18.663Z,6.40
2023-07-06T02:05:18.623Z,6.40
2023-07-06T02:06:18.661Z,5.90
2023-07-06T02:07:18.600Z,6.10
2023-07-06T02:08:18.580Z,6.30
2023-07-06T02:09:18.592Z,6.20
2023-07-06T02:10:18.551Z,6.00
2023-07-06T02:11:18.533Z,6.70
2023-07-06T02:12:18.586Z,6.40
2023-07-06T02:13:18.570Z,6.20
2023-07-06T02:14:18.534Z,6.80
2023-07-06T02:15:18.506Z,6.50
2023-07-06T02:16:18.491Z,6.00
2023-07-06T02:17:18.540Z,6.70
2023-07-06T02:18:18.460Z,6.50
2023-07-06T02:19:18.475Z,6.30
2023-07-06T02:20:18.416Z,6.10
2023-07-06T02:21:18.414Z,6.10
2023-07-06T02:22:18.367Z,7.20
2023-07-06T02:23:18.352Z,6.10
2023-07-06T02:24:18.360Z,6.40
2023-07-06T02:25:18.452Z,6.10
2023-07-06T02:26:18.350Z,6.40
2023-07-06T02:27:18.308Z,5.90
2023-07-06T02:28:18.287Z,6.00
2023-07-06T02:29:18.347Z,6.20
2023-07-06T02:30:18.289Z,6.20
2023-07-06T02:31:18.373Z,6.30
2023-07-06T02:32:18.374Z,6.30
2023-07-06T02:33:18.224Z,6.00
2023-07-06T02:34:18.205Z,6.60
2023-07-06T02:35:18.196Z,6.50
2023-07-06T02:36:18.282Z,6.40
2023-07-06T02:37:18.177Z,6.50
2023-07-06T02:38:18.224Z,6.60
2023-07-06T02:39:18.126Z,6.80
2023-07-06T02:40:18.123Z,7.00
2023-07-06T02:41:18.151Z,7.00
2023-07-06T02:42:18.125Z,7.10
2023-07-06T02:43:18.123Z,6.70
2023-07-06T02:44:18.137Z,6.50
2023-07-06T02:45:18.116Z,7.50
2023-07-06T02:46:18.152Z,7.00
2023-07-06T02:47:18.017Z,7.00
2023-07-06T02:48:18.036Z,6.30
2023-07-06T02:49:18.005Z,6.70
2023-07-06T02:50:18.053Z,6.90
2023-07-06T02:51:18.005Z,7.10
2023-07-06T02:52:17.976Z,7.10
2023-07-06T02:53:18.047Z,7.60
2023-07-06T02:54:17.966Z,6.60
2023-07-06T02:55:17.924Z,6.80
2023-07-06T02:56:18.016Z,7.10
2023-07-06T02:57:17.890Z,6.70
2023-07-06T02:58:17.909Z,7.40
2023-07-06T02:59:17.859Z,6.60
2023-07-06T03:00:17.952Z,7.30
2023-07-06T03:01:17.892Z,7.40
2023-07-06T03:02:17.881Z,6.70
2023-07-06T03:03:17.832Z,7.10
2023-07-06T03:04:17.793Z,6.70
2023-07-06T03:05:17.851Z,7.00
2023-07-06T03:06:17.852Z,7.00
2023-07-06T03:07:17.773Z,6.90
2023-07-06T03:08:17.747Z,6.80
2023-07-06T03:09:17.718Z,6.50
2023-07-06T03:10:17.740Z,6.80
2023-07-06T03:11:17.714Z,6.80
2023-07-06T03:12:17.756Z,6.80
2023-07-06T03:13:17.837Z,6.40
2023-07-06T03:14:17.722Z,7.30
2023-07-06T03:15:17.651Z,6.50
2023-07-06T03:16:18.868Z,6.40
2023-07-06T03:17:17.796Z,7.40
2023-07-06T03:18:17.621Z,7.80
2023-07-06T03:19:17.585Z,7.20
2023-07-06T03:20:17.558Z,6.60
2023-07-06T03:21:17.601Z,6.40
2023-07-06T03:22:17.570Z,6.30
2023-07-06T03:23:17.545Z,6.80
2023-07-06T03:24:17.519Z,7.10
2023-07-06T03:25:17.505Z,6.80
2023-07-06T03:26:17.709Z,6.60
2023-07-06T03:27:17.486Z,7.10
2023-07-06T03:28:17.462Z,7.00
2023-07-06T03:29:17.445Z,6.00
2023-07-06T03:30:17.466Z,6.10
2023-07-06T03:31:17.501Z,6.90
2023-07-06T03:32:17.450Z,5.90
2023-07-06T03:33:17.394Z,5.80
2023-07-06T03:34:17.369Z,6.60
2023-07-06T03:35:17.384Z,6.10
2023-07-06T03:36:17.356Z,6.50
2023-07-06T03:37:17.364Z,6.10
2023-07-06T03:38:17.380Z,6.30
2023-07-06T03:39:17.308Z,6.10
2023-07-06T03:40:17.299Z,6.10
2023-07-06T03:41:17.286Z,6.30
2023-07-06T03:42:17.282Z,5.60
2023-07-06T03:43:17.317Z,6.10
2023-07-06T03:44:17.306Z,6.00
2023-07-06T03:45:17.215Z,5.70
2023-07-06T03:46:17.296Z,5.80
2023-07-06T03:47:17.190Z,6.10
2023-07-06T03:48:17.260Z,6.20
2023-07-06T03:49:17.154Z,5.80
2023-07-06T03:50:17.292Z,5.40
2023-07-06T03:51:17.141Z,5.60
2023-07-06T03:52:17.143Z,6.20
2023-07-06T03:53:17.128Z,6.70
2023-07-06T03:54:17.128Z,5.40
2023-07-06T03:55:17.077Z,5.60
2023-07-06T03:56:17.120Z,5.50
2023-07-06T03:57:17.058Z,5.40
2023-07-06T03:58:17.103Z,5.80
2023-07-06T03:59:17.045Z,5.40
2023-07-06T04:00:17.016Z,5.30
2023-07-06T04:01:17.024Z,6.00
2023-07-06T04:02:17.062Z,6.00
2023-07-06T04:03:16.983Z,6.10
2023-07-06T04:04:16.970Z,6.10
2023-07-06T04:05:17.002Z,5.70
2023-07-06T04:06:16.957Z,5.00
2023-07-06T04:07:16.949Z,5.60
2023-07-06T04:08:16.921Z,5.40
2023-07-06T04:09:16.897Z,5.80
2023-07-06T04:10:16.897Z,5.20
2023-07-06T04:11:16.857Z,5.50
2023-07-06T04:12:16.884Z,5.40
2023-07-06T04:13:16.937Z,5.60
2023-07-06T04:14:16.825Z,5.10
2023-07-06T04:15:16.829Z,5.20
2023-07-06T04:16:16.889Z,5.40
2023-07-06T04:17:16.797Z,5.40
2023-07-06T04:18:16.850Z,5.70
2023-07-06T04:19:16.740Z,5.60
2023-07-06T04:20:16.765Z,5.30
2023-07-06T04:21:16.797Z,5.30
2023-07-06T04:22:16.735Z,5.20
2023-07-06T04:23:16.815Z,5.50
2023-07-06T04:24:16.750Z,4.90
2023-07-06T04:25:16.667Z,5.30
2023-07-06T04:26:16.676Z,5.20
2023-07-06T04:27:16.697Z,5.30
2023-07-06T04:28:16.712Z,5.40
2023-07-06T04:29:16.640Z,5.30
2023-07-06T04:30:16.654Z,5.30
2023-07-06T04:31:16.687Z,5.70
2023-07-06T04:32:16.597Z,5.50
2023-07-06T04:33:16.586Z,5.60
2023-07-06T04:34:16.595Z,5.10
2023-07-06T04:35:16.528Z,5.80
2023-07-06T04:36:16.528Z,5.30
2023-07-06T04:37:16.551Z,5.50
2023-07-06T04:38:16.504Z,5.30
2023-07-06T04:39:16.471Z,5.10
2023-07-06T04:40:16.473Z,5.40
2023-07-06T04:41:16.634Z,5.00
2023-07-06T04:42:16.454Z,5.00
2023-07-06T04:43:16.432Z,5.70
2023-07-06T04:44:16.411Z,5.00
2023-07-06T04:45:16.454Z,5.10
2023-07-06T04:46:16.407Z,5.60
2023-07-06T04:47:16.354Z,5.70
2023-07-06T04:48:16.373Z,5.30
2023-07-06T04:49:16.385Z,5.50
2023-07-06T04:50:16.351Z,5.60
2023-07-06T04:51:16.331Z,5.30
2023-07-06T04:52:16.297Z,5.60
2023-07-06T04:53:16.288Z,5.20
2023-07-06T04:54:16.282Z,5.10
2023-07-06T04:55:16.277Z,5.80
2023-07-06T04:56:16.286Z,5.40
2023-07-06T04:57:16.295Z,5.00
2023-07-06T04:58:16.202Z,5.10
2023-07-06T04:59:16.178Z,5.30
2023-07-06T05:00:16.174Z,5.40
2023-07-06T05:01:16.257Z,4.80
2023-07-06T05:02:16.200Z,4.80
2023-07-06T05:03:16.284Z,4.90
2023-07-06T05:04:16.105Z,5.20
2023-07-06T05:05:16.123Z,5.00
2023-07-06T05:06:16.100Z,4.60
2023-07-06T05:07:16.104Z,5.30
2023-07-06T05:08:16.063Z,4.90
2023-07-06T05:09:16.083Z,4.80
2023-07-06T05:10:16.033Z,4.20
2023-07-06T05:11:16.040Z,5.00
2023-07-06T05:12:16.022Z,4.70
2023-07-06T05:13:16.181Z,5.00
2023-07-06T05:14:15.976Z,4.50
2023-07-06T05:15:15.957Z,4.20
2023-07-06T05:16:15.946Z,4.50
2023-07-06T05:17:16.017Z,4.10
2023-07-06T05:18:15.982Z,4.00
2023-07-06T05:19:15.890Z,4.40
2023-07-06T05:20:15.877Z,4.20
2023-07-06T05:21:15.867Z,4.90
2023-07-06T05:22:17.589Z,4.40
2023-07-06T05:23:15.866Z,4.40
2023-07-06T05:24:15.938Z,4.60
2023-07-06T05:25:15.813Z,5.00
2023-07-06T05:26:15.829Z,4.40
2023-07-06T05:27:15.778Z,5.50
2023-07-06T05:28:15.820Z,5.90
2023-07-06T05:29:15.791Z,4.90
2023-07-06T05:30:15.801Z,5.00
2023-07-06T05:31:15.772Z,4.70
2023-07-06T05:32:15.743Z,4.20
2023-07-06T05:33:15.718Z,4.80
2023-07-06T05:34:15.730Z,4.00
2023-07-06T05:35:18.109Z,5.10
2023-07-06T05:36:16.407Z,4.50
2023-07-06T05:37:35.686Z,4.40
2023-07-06T05:38:16.686Z,4.20
2023-07-06T05:39:15.609Z,4.60
2023-07-06T05:40:15.621Z,4.50
2023-07-06T05:41:15.574Z,4.30
2023-07-06T05:42:15.652Z,4.30
2023-07-06T05:43:15.574Z,3.80
2023-07-06T05:44:15.611Z,3.80
2023-07-06T05:45:15.561Z,4.20
2023-07-06T05:46:17.109Z,4.10
2023-07-06T05:47:18.389Z,3.80
2023-07-06T05:48:15.486Z,4.30
2023-07-06T05:49:16.913Z,3.70
2023-07-06T05:50:15.511Z,3.90
2023-07-06T05:51:15.477Z,3.60
2023-07-06T05:52:15.407Z,4.20
2023-07-06T05:53:15.402Z,4.10
2023-07-06T05:54:15.673Z,4.00
2023-07-06T05:55:15.400Z,3.70
2023-07-06T05:56:15.458Z,3.80
2023-07-06T05:57:15.370Z,4.00
2023-07-06T05:58:15.447Z,3.70
2023-07-06T05:59:15.378Z,4.10
2023-07-06T06:00:15.342Z,3.60
2023-07-06T06:01:15.290Z,3.70
2023-07-06T06:02:15.387Z,4.20
2023-07-06T06:03:15.279Z,4.10
2023-07-06T06:04:15.400Z,4.40
2023-07-06T06:05:15.394Z,3.70
2023-07-06T06:06:15.357Z,3.80
2023-07-06T06:07:15.212Z,4.40
2023-07-06T06:08:15.250Z,4.30
2023-07-06T06:09:15.194Z,4.20
2023-07-06T06:10:15.294Z,4.70
2023-07-06T06:11:15.276Z,3.70
2023-07-06T06:12:15.192Z,4.30
2023-07-06T06:13:15.172Z,4.10
2023-07-06T06:14:15.113Z,3.90
2023-07-06T06:15:15.460Z,4.50
2023-07-06T06:16:15.110Z,4.60
2023-07-06T06:17:15.161Z,4.30
2023-07-06T06:18:15.087Z,3.80
2023-07-06T06:19:15.130Z,4.10
2023-07-06T06:20:15.041Z,4.20
2023-07-06T06:21:15.057Z,4.10
2023-07-06T06:22:15.064Z,3.60
2023-07-06T06:23:15.031Z,3.70
2023-07-06T06:24:14.984Z,3.80
2023-07-06T06:25:15.025Z,4.70
2023-07-06T06:26:14.967Z,4.00
2023-07-06T06:27:14.959Z,4.20
2023-07-06T06:28:14.925Z,3.70
2023-07-06T06:29:14.967Z,3.80
2023-07-06T06:30:15.012Z,3.70
2023-07-06T06:31:14.917Z,4.10
2023-07-06T06:32:15.006Z,4.20
2023-07-06T06:33:14.864Z,4.30
2023-07-06T06:34:14.974Z,3.80
2023-07-06T06:35:14.926Z,4.10
2023-07-06T06:36:14.821Z,4.20
2023-07-06T06:37:14.850Z,3.90
2023-07-06T06:38:14.781Z,4.60
2023-07-06T06:39:14.828Z,4.10
2023-07-06T06:40:14.783Z,3.60
2023-07-06T06:41:14.779Z,4.00
2023-07-06T06:42:15.076Z,3.70
2023-07-06T06:43:19.833Z,4.00
2023-07-06T06:44:14.780Z,3.80
2023-07-06T06:45:14.745Z,4.20
2023-07-06T06:46:14.764Z,3.70
2023-07-06T06:47:14.702Z,3.30
2023-07-06T06:48:14.793Z,3.90
2023-07-06T06:49:14.780Z,3.80
2023-07-06T06:50:14.627Z,3.40
2023-07-06T06:51:14.710Z,3.40
2023-07-06T06:52:15.113Z,4.20
2023-07-06T06:53:14.845Z,3.90
2023-07-06T06:54:14.949Z,3.70
2023-07-06T06:55:14.601Z,3.80
2023-07-06T06:56:15.233Z,4.10
2023-07-06T06:57:14.557Z,3.50
2023-07-06T06:58:14.538Z,4.00
2023-07-06T06:59:14.551Z,4.60
2023-07-06T07:00:14.505Z,4.00
2023-07-06T07:01:14.615Z,3.80
2023-07-06T07:02:14.545Z,4.30
2023-07-06T07:03:14.465Z,4.20
2023-07-06T07:04:14.577Z,4.30
2023-07-06T07:05:14.431Z,3.60
2023-07-06T07:06:14.468Z,4.00
2023-07-06T07:07:14.413Z,3.80
2023-07-06T07:08:14.482Z,4.10
2023-07-06T07:09:14.378Z,3.80
2023-07-06T07:10:14.431Z,4.00
2023-07-06T07:11:23.072Z,3.80
2023-07-06T07:12:15.402Z,4.40
2023-07-06T07:13:14.328Z,4.40
2023-07-06T07:14:14.392Z,3.40
2023-07-06T07:15:14.384Z,4.30
2023-07-06T07:16:14.345Z,4.30
2023-07-06T07:17:14.313Z,3.70
2023-07-06T07:18:14.235Z,4.00
2023-07-06T07:19:14.262Z,3.60
2023-07-06T07:20:14.264Z,3.70
2023-07-06T07:21:14.219Z,4.00
2023-07-06T07:22:14.368Z,3.90
2023-07-06T07:23:14.217Z,3.70
2023-07-06T07:24:14.280Z,4.20
2023-07-06T07:25:14.251Z,4.30
2023-07-06T07:26:14.200Z,3.80
2023-07-06T07:27:14.122Z,4.10
2023-07-06T07:28:14.152Z,4.00
2023-07-06T07:29:14.126Z,3.60
2023-07-06T07:30:14.228Z,3.40
2023-07-06T07:31:14.226Z,3.60
2023-07-06T07:32:19.668Z,4.00
2023-07-06T07:33:14.167Z,4.00
2023-07-06T07:34:14.233Z,4.10
2023-07-06T07:35:14.013Z,4.10
2023-07-06T07:36:14.126Z,4.00
2023-07-06T07:37:14.135Z,3.60
2023-07-06T07:38:14.262Z,3.60
2023-07-06T07:39:19.297Z,3.50
2023-07-06T07:40:15.060Z,4.00
2023-07-06T07:41:13.970Z,4.20
2023-07-06T07:42:14.055Z,4.20
2023-07-06T07:43:14.120Z,4.50
2023-07-06T07:44:14.213Z,4.00
2023-07-06T07:45:14.112Z,4.40
2023-07-06T07:46:13.880Z,4.00
2023-07-06T07:47:13.885Z,4.20
2023-07-06T07:48:14.067Z,3.80
2023-07-06T07:49:13.882Z,4.20
2023-07-06T07:50:13.848Z,3.90
2023-07-06T07:51:13.923Z,3.10
2023-07-06T07:52:13.818Z,3.30
2023-07-06T07:53:13.873Z,3.60
2023-07-06T07:54:13.783Z,4.30
2023-07-06T07:55:13.908Z,3.50
2023-07-06T07:56:13.860Z,3.80
2023-07-06T07:57:13.967Z,3.60
2023-07-06T07:58:13.836Z,3.50
2023-07-06T07:59:15.587Z,3.40
2023-07-06T08:00:13.734Z,3.60
2023-07-06T08:01:13.720Z,3.20
2023-07-06T08:02:22.598Z,2.90
2023-07-06T08:03:14.838Z,2.90
2023-07-06T08:04:13.727Z,2.90
2023-07-06T08:05:13.765Z,3.60
2023-07-06T08:06:13.596Z,3.50
2023-07-06T08:07:13.733Z,3.00
2023-07-06T08:08:17.754Z,3.10
2023-07-06T08:09:13.773Z,3.10
2023-07-06T08:10:13.546Z,2.90
2023-07-06T08:11:14.254Z,3.50
2023-07-06T08:12:13.658Z,2.70
2023-07-06T08:13:13.509Z,3.30
2023-07-06T08:14:13.522Z,2.90
2023-07-06T08:15:13.489Z,2.80
2023-07-06T08:16:13.498Z,2.70
2023-07-06T08:17:13.485Z,2.90
2023-07-06T08:18:13.470Z,3.20
2023-07-06T08:19:40.004Z,3.40
2023-07-06T08:20:48.059Z,2.90
2023-07-06T08:21:39.923Z,3.20
2023-07-06T08:22:14.400Z,3.50
2023-07-06T08:23:13.398Z,3.00
2023-07-06T08:24:13.381Z,3.20
2023-07-06T08:25:16.080Z,3.30
2023-07-06T08:26:13.386Z,3.30
2023-07-06T08:27:15.534Z,3.80
2023-07-06T08:28:13.323Z,4.00
2023-07-06T08:29:13.348Z,3.40
2023-07-06T08:30:13.304Z,3.10
2023-07-06T08:31:13.312Z,3.30
2023-07-06T08:32:13.299Z,2.80
2023-07-06T08:33:13.299Z,3.20
2023-07-06T08:34:13.226Z,2.70
2023-07-06T08:35:13.255Z,3.10
2023-07-06T08:36:13.257Z,3.40
2023-07-06T08:37:13.259Z,2.90
2023-07-06T08:38:13.192Z,2.90
2023-07-06T08:39:13.235Z,2.90
2023-07-06T08:40:13.172Z,3.30
2023-07-06T08:41:16.145Z,2.90
2023-07-06T08:42:13.185Z,2.80
2023-07-06T08:43:13.157Z,2.90
2023-07-06T08:44:13.134Z,3.00
2023-07-06T08:45:13.092Z,2.80
2023-07-06T08:46:13.101Z,2.60
2023-07-06T08:47:13.060Z,2.50
2023-07-06T08:48:13.105Z,2.60
2023-07-06T08:49:13.166Z,3.10
2023-07-06T08:50:13.068Z,2.80
2023-07-06T08:51:13.019Z,2.70
2023-07-06T08:52:13.029Z,2.60
2023-07-06T08:53:13.011Z,3.10
2023-07-06T08:54:12.995Z,2.60
2023-07-06T08:55:12.976Z,2.70
2023-07-06T08:56:13.002Z,2.60
2023-07-06T08:57:12.924Z,2.30
2023-07-06T08:58:12.911Z,2.80
2023-07-06T08:59:13.125Z,2.60
2023-07-06T09:00:13.006Z,2.60
2023-07-06T09:01:12.966Z,2.40
2023-07-06T09:02:12.917Z,3.00
2023-07-06T09:03:13.130Z,2.30
2023-07-06T09:04:12.825Z,2.90
2023-07-06T09:05:12.822Z,2.70
2023-07-06T09:06:12.823Z,2.40
2023-07-06T09:07:12.932Z,2.30
2023-07-06T09:08:12.828Z,2.40
2023-07-06T09:09:12.836Z,2.60
2023-07-06T09:10:23.639Z,2.50
2023-07-06T09:11:21.329Z,3.00
2023-07-06T09:12:13.816Z,3.30
2023-07-06T09:13:12.751Z,3.70
2023-07-06T09:14:12.769Z,4.70
2023-07-06T09:15:12.695Z,2.70
2023-07-06T09:16:12.730Z,2.20
2023-07-06T09:17:12.751Z,2.30
2023-07-06T09:18:12.637Z,2.10
2023-07-06T09:19:12.792Z,1.90
2023-07-06T09:20:12.625Z,1.60
2023-07-06T09:21:12.614Z,1.70
2023-07-06T09:22:12.639Z,1.70
2023-07-06T09:23:12.636Z,1.30
2023-07-06T09:24:12.592Z,1.50
2023-07-06T09:25:12.561Z,1.80
2023-07-06T09:26:24.150Z,1.50
2023-07-06T09:27:13.647Z,1.60
2023-07-06T09:28:12.511Z,1.40
2023-07-06T09:29:12.500Z,1.50
2023-07-06T09:30:12.851Z,1.90
2023-07-06T09:31:12.497Z,1.20
2023-07-06T09:32:12.538Z,1.50
2023-07-06T09:33:12.439Z,1.30
2023-07-06T09:34:12.448Z,1.60
2023-07-06T09:35:12.435Z,1.80
2023-07-06T09:36:12.425Z,2.00
2023-07-06T09:37:12.391Z,1.70
2023-07-06T09:38:12.383Z,1.80
2023-07-06T09:39:12.371Z,1.70
2023-07-06T09:40:12.356Z,1.50
2023-07-06T09:41:12.438Z,1.50
2023-07-06T09:42:12.352Z,1.30
2023-07-06T09:43:12.331Z,1.60
2023-07-06T09:44:12.489Z,1.70
2023-07-06T09:45:12.335Z,1.70
2023-07-06T09:46:12.374Z,1.60
2023-07-06T09:47:12.331Z,1.70
2023-07-06T09:48:12.297Z,1.30
2023-07-06T09:49:12.274Z,1.90
2023-07-06T09:50:12.254Z,1.30
2023-07-06T09:51:12.245Z,1.10
2023-07-06T09:52:12.192Z,1.20
2023-07-06T09:53:12.213Z,1.80
2023-07-06T09:54:12.202Z,1.50
2023-07-06T09:55:12.164Z,1.60
2023-07-06T09:56:12.136Z,1.20
2023-07-06T09:57:12.244Z,1.60
2023-07-06T09:58:12.144Z,1.80
2023-07-06T09:59:12.220Z,1.70
2023-07-06T10:00:12.108Z,1.60
2023-07-06T10:01:12.204Z,1.40
2023-07-06T10:02:12.159Z,1.40
2023-07-06T10:03:12.157Z,1.50
2023-07-06T10:04:12.063Z,1.60
2023-07-06T10:05:12.162Z,1.30
2023-07-06T10:06:12.037Z,1.70
2023-07-06T10:07:12.056Z,1.20
2023-07-06T10:08:12.068Z,1.40
2023-07-06T10:09:11.970Z,1.30
2023-07-06T10:10:11.973Z,1.10
2023-07-06T10:11:12.069Z,1.50
2023-07-06T10:12:11.940Z,1.60
2023-07-06T10:13:11.928Z,1.30
2023-07-06T10:14:11.922Z,2.10
2023-07-06T10:15:11.967Z,1.80
2023-07-06T10:16:11.896Z,1.70
2023-07-06T10:17:12.064Z,1.40
2023-07-06T10:18:11.968Z,1.60
2023-07-06T10:19:11.908Z,1.40
2023-07-06T10:20:11.865Z,1.70
2023-07-06T10:21:11.818Z,1.60
2023-07-06T10:22:11.825Z,1.50
2023-07-06T10:23:11.808Z,1.30
2023-07-06T10:24:11.790Z,1.40
2023-07-06T10:25:11.927Z,1.70
2023-07-06T10:26:11.775Z,1.20
2023-07-06T10:27:11.815Z,1.80
2023-07-06T10:28:11.723Z,1.60
2023-07-06T10:29:11.709Z,1.50
2023-07-06T10:30:11.792Z,1.30
2023-07-06T10:31:11.690Z,2.00
2023-07-06T10:32:11.707Z,1.50
2023-07-06T10:33:11.717Z,1.30
2023-07-06T10:34:11.675Z,1.50
2023-07-06T10:35:15.064Z,1.30
2023-07-06T10:36:11.652Z,1.30
2023-07-06T10:37:11.809Z,1.50
2023-07-06T10:38:11.649Z,1.30
2023-07-06T10:39:11.641Z,1.70
2023-07-06T10:40:11.567Z,1.70
2023-07-06T10:41:11.555Z,1.30
2023-07-06T10:42:11.600Z,1.50
2023-07-06T10:43:11.512Z,1.50
2023-07-06T10:44:11.534Z,1.40
2023-07-06T10:45:11.494Z,1.60
2023-07-06T10:46:11.527Z,1.20
2023-07-06T10:47:11.506Z,1.10
2023-07-06T10:48:11.501Z,1.60
2023-07-06T10:49:11.472Z,1.30
2023-07-06T10:50:11.468Z,1.60
2023-07-06T10:51:11.411Z,1.20
2023-07-06T10:52:11.380Z,1.40
2023-07-06T10:53:11.416Z,1.20
2023-07-06T10:54:11.547Z,1.30
2023-07-06T10:55:11.370Z,1.10
2023-07-06T10:56:11.423Z,1.00
2023-07-06T10:57:11.366Z,1.30
2023-07-06T10:58:11.450Z,1.60
2023-07-06T10:59:11.316Z,1.70
2023-07-06T11:00:11.360Z,2.20
2023-07-06T11:01:11.379Z,1.40
2023-07-06T11:02:11.286Z,1.40
2023-07-06T11:03:11.321Z,1.70
2023-07-06T11:04:11.353Z,1.50
2023-07-06T11:05:11.336Z,1.20
2023-07-06T11:06:11.190Z,1.70
2023-07-06T11:07:11.212Z,1.50
2023-07-06T11:08:11.283Z,1.50
2023-07-06T11:09:11.219Z,1.50
2023-07-06T11:10:11.329Z,1.60
2023-07-06T11:11:11.128Z,1.80
2023-07-06T11:12:11.147Z,1.30
2023-07-06T11:13:11.158Z,1.50
2023-07-06T11:14:11.242Z,1.30
2023-07-06T11:15:11.101Z,1.50
2023-07-06T11:16:11.126Z,1.60
2023-07-06T11:17:11.117Z,1.70
2023-07-06T11:18:11.055Z,1.40
2023-07-06T11:19:11.046Z,1.60
2023-07-06T11:20:11.045Z,1.30
2023-07-06T11:21:11.061Z,1.40
2023-07-06T11:22:11.021Z,1.20
2023-07-06T11:23:10.971Z,1.40
2023-07-06T11:24:11.028Z,1.50
2023-07-06T11:25:10.951Z,1.20
2023-07-06T11:26:10.939Z,1.00
2023-07-06T11:27:10.915Z,1.20
2023-07-06T11:28:10.942Z,1.30
2023-07-06T11:29:10.904Z,1.30
2023-07-06T11:30:10.945Z,1.00
2023-07-06T11:31:10.967Z,1.40
2023-07-06T11:32:10.953Z,1.20
2023-07-06T11:33:10.926Z,1.10
2023-07-06T11:34:10.834Z,1.50
2023-07-06T11:35:10.828Z,1.30
2023-07-06T11:36:10.824Z,1.00
2023-07-06T11:37:10.799Z,1.10
2023-07-06T11:38:10.782Z,1.10
2023-07-06T11:39:10.826Z,1.00
2023-07-06T11:40:10.783Z,0.90
2023-07-06T11:41:10.817Z,0.90
2023-07-06T11:42:10.737Z,1.00
2023-07-06T11:43:10.770Z,0.80
2023-07-06T11:44:10.771Z,1.00
2023-07-06T11:45:10.825Z,1.10
2023-07-06T11:46:10.693Z,1.10
2023-07-06T11:47:10.714Z,1.00
2023-07-06T11:48:10.826Z,1.10
2023-07-06T11:49:10.647Z,1.00
2023-07-06T11:50:10.726Z,1.30
2023-07-06T11:51:10.673Z,1.20
2023-07-06T11:52:10.646Z,1.00
2023-07-06T11:53:10.704Z,1.30
2023-07-06T11:54:10.625Z,1.40
2023-07-06T11:55:10.612Z,1.10
2023-07-06T11:56:10.559Z,1.30
2023-07-06T11:57:10.560Z,1.20
2023-07-06T11:58:10.576Z,1.20
2023-07-06T11:59:10.503Z,1.10
2023-07-06T12:00:10.584Z,1.30
2023-07-06T12:01:10.535Z,1.50
2023-07-06T12:02:10.541Z,1.70
2023-07-06T12:03:10.531Z,1.70
2023-07-06T12:04:10.433Z,1.30
2023-07-06T12:05:10.544Z,1.50
2023-07-06T12:06:10.494Z,1.30
2023-07-06T12:07:10.443Z,1.40
2023-07-06T12:08:10.443Z,1.50
2023-07-06T12:09:10.394Z,1.50
2023-07-06T12:10:10.524Z,1.30
2023-07-06T12:11:10.418Z,1.20
2023-07-06T12:12:10.387Z,1.20
2023-07-06T12:13:10.379Z,1.40
2023-07-06T12:14:10.423Z,1.40
2023-07-06T12:15:10.523Z,1.30
2023-07-06T12:16:10.298Z,1.40
2023-07-06T12:17:10.319Z,1.50
2023-07-06T12:18:10.372Z,1.50
2023-07-06T12:19:10.297Z,1.30
2023-07-06T12:20:10.439Z,1.40
2023-07-06T12:21:17.781Z,1.40
2023-07-06T12:22:10.232Z,1.20
2023-07-06T12:23:10.272Z,1.10
2023-07-06T12:24:10.183Z,1.00
2023-07-06T12:25:10.144Z,1.00
2023-07-06T12:26:10.180Z,0.90
2023-07-06T12:27:10.168Z,1.20
2023-07-06T12:28:10.152Z,1.60
2023-07-06T12:29:10.186Z,1.10
2023-07-06T12:30:10.132Z,0.80
2023-07-06T12:31:10.132Z,0.70
2023-07-06T12:32:10.052Z,0.80
2023-07-06T12:33:10.169Z,1.00
2023-07-06T12:34:10.088Z,0.70
2023-07-06T12:35:10.015Z,0.90
2023-07-06T12:36:11.248Z,0.80
2023-07-06T12:37:10.005Z,0.60
2023-07-06T12:38:09.982Z,0.90
2023-07-06T12:39:09.976Z,1.00
2023-07-06T12:40:10.024Z,0.70
2023-07-06T12:41:09.967Z,1.00
2023-07-06T12:42:09.997Z,0.80
2023-07-06T12:43:10.296Z,1.10
2023-07-06T12:44:11.033Z,0.70
2023-07-06T12:45:10.054Z,0.70
2023-07-06T12:46:10.077Z,0.80
2023-07-06T12:47:09.902Z,0.80
2023-07-06T12:48:09.860Z,0.70
2023-07-06T12:49:09.930Z,0.70
2023-07-06T12:50:11.907Z,0.80
2023-07-06T12:51:10.095Z,0.50
2023-07-06T12:52:09.936Z,0.80
2023-07-06T12:53:10.286Z,0.70
2023-07-06T12:54:09.826Z,0.70
2023-07-06T12:55:09.833Z,0.60
2023-07-06T12:56:09.760Z,0.60
2023-07-06T12:57:09.823Z,0.60
2023-07-06T12:58:09.730Z,0.80
2023-07-06T12:59:09.773Z,0.80
2023-07-06T13:00:09.775Z,0.90
2023-07-06T13:01:09.821Z,0.60
2023-07-06T13:02:09.766Z,0.80
2023-07-06T13:03:09.808Z,0.80
2023-07-06T13:04:10.133Z,0.70
2023-07-06T13:05:09.696Z,0.70
2023-07-06T13:06:09.694Z,0.90
2023-07-06T13:07:09.682Z,1.10
2023-07-06T13:08:09.643Z,0.70
2023-07-06T13:09:09.675Z,0.50
2023-07-06T13:10:09.678Z,0.70
2023-07-06T13:11:09.618Z,0.80
2023-07-06T13:12:09.624Z,0.50
2023-07-06T13:13:09.591Z,0.60
2023-07-06T13:14:09.639Z,0.70
2023-07-06T13:15:09.512Z,0.50
2023-07-06T13:16:11.914Z,0.60
2023-07-06T13:17:09.645Z,0.80
2023-07-06T13:18:09.534Z,0.50